sensor_id;sensor_type;location;lat;lon;timestamp;temperature;humidity
49148;DHT22;41980;45.550;12.070;2023-03-21T00:01:22;9.10;76.80
49148;DHT22;41980;45.550;12.070;2023-03-21T00:07:24;9.00;77.00
49148;DHT22;41980;45.550;12.070;2023-03-21T00:13:27;9.00;77.10
49148;DHT22;41980;45.550;12.070;2023-03-21T00:19:33;9.00;77.20
49148;DHT22;41980;45.550;12.070;2023-03-21T00:25:38;9.00;77.00
49148;DHT22;41980;45.550;12.070;2023-03-21T00:31:40;9.00;76.90
49148;DHT22;41980;45.550;12.070;2023-03-21T00:37:42;9.00;77.00
49148;DHT22;41980;45.550;12.070;2023-03-21T00:43:45;9.00;77.00
49148;DHT22;41980;45.550;12.070;2023-03-21T00:49:47;9.00;77.30
49148;DHT22;41980;45.550;12.070;2023-03-21T00:55:50;9.00;77.40
49148;DHT22;41980;45.550;12.070;2023-03-21T01:01:52;8.90;77.30
49148;DHT22;41980;45.550;12.070;2023-03-21T01:07:54;8.90;77.20
49148;DHT22;41980;45.550;12.070;2023-03-21T01:13:56;8.90;77.20
49148;DHT22;41980;45.550;12.070;2023-03-21T01:19:58;8.90;77.30
49148;DHT22;41980;45.550;12.070;2023-03-21T01:26:00;8.80;77.80
49148;DHT22;41980;45.550;12.070;2023-03-21T01:32:02;8.70;77.90
49148;DHT22;41980;45.550;12.070;2023-03-21T01:38:04;8.60;78.00
49148;DHT22;41980;45.550;12.070;2023-03-21T01:44:12;8.60;78.10
49148;DHT22;41980;45.550;12.070;2023-03-21T01:50:17;8.50;78.10
49148;DHT22;41980;45.550;12.070;2023-03-21T01:56:35;8.50;78.10
49148;DHT22;41980;45.550;12.070;2023-03-21T02:02:44;8.50;78.10
49148;DHT22;41980;45.550;12.070;2023-03-21T02:09:08;8.50;77.90
49148;DHT22;41980;45.550;12.070;2023-03-21T02:15:11;8.50;78.00
49148;DHT22;41980;45.550;12.070;2023-03-21T02:27:48;8.50;78.20
49148;DHT22;41980;45.550;12.070;2023-03-21T02:46:17;8.30;78.30
49148;DHT22;41980;45.550;12.070;2023-03-21T02:52:25;8.20;78.30
49148;DHT22;41980;45.550;12.070;2023-03-21T02:58:31;8.20;78.40
49148;DHT22;41980;45.550;12.070;2023-03-21T03:04:34;8.20;78.30
49148;DHT22;41980;45.550;12.070;2023-03-21T03:16:48;8.20;78.10
49148;DHT22;41980;45.550;12.070;2023-03-21T03:29:07;8.20;78.10
49148;DHT22;41980;45.550;12.070;2023-03-21T03:35:14;8.20;78.00
49148;DHT22;41980;45.550;12.070;2023-03-21T03:41:23;8.20;78.00
49148;DHT22;41980;45.550;12.070;2023-03-21T03:53:49;8.20;77.80
49148;DHT22;41980;45.550;12.070;2023-03-21T03:59:53;8.20;77.90
49148;DHT22;41980;45.550;12.070;2023-03-21T04:05:59;8.20;78.00
49148;DHT22;41980;45.550;12.070;2023-03-21T04:12:02;8.10;78.10
49148;DHT22;41980;45.550;12.070;2023-03-21T04:18:05;8.10;78.20
49148;DHT22;41980;45.550;12.070;2023-03-21T04:24:08;8.10;78.20
49148;DHT22;41980;45.550;12.070;2023-03-21T04:30:11;8.10;78.10
49148;DHT22;41980;45.550;12.070;2023-03-21T04:36:24;8.10;78.20
49148;DHT22;41980;45.550;12.070;2023-03-21T04:42:34;8.10;80.50
49148;DHT22;41980;45.550;12.070;2023-03-21T04:48:36;7.90;81.30
49148;DHT22;41980;45.550;12.070;2023-03-21T04:54:39;7.80;79.60
49148;DHT22;41980;45.550;12.070;2023-03-21T05:00:41;7.80;79.80
49148;DHT22;41980;45.550;12.070;2023-03-21T05:06:44;7.80;80.10
49148;DHT22;41980;45.550;12.070;2023-03-21T05:12:47;7.70;79.50
49148;DHT22;41980;45.550;12.070;2023-03-21T05:18:49;7.60;79.80
49148;DHT22;41980;45.550;12.070;2023-03-21T05:24:54;7.60;79.60
49148;DHT22;41980;45.550;12.070;2023-03-21T05:31:00;7.60;78.80
49148;DHT22;41980;45.550;12.070;2023-03-21T05:37:02;7.70;78.40
49148;DHT22;41980;45.550;12.070;2023-03-21T05:43:17;7.90;78.50
49148;DHT22;41980;45.550;12.070;2023-03-21T05:49:20;8.10;77.80
49148;DHT22;41980;45.550;12.070;2023-03-21T05:55:28;8.30;77.60
49148;DHT22;41980;45.550;12.070;2023-03-21T06:01:32;8.70;80.50
49148;DHT22;41980;45.550;12.070;2023-03-21T06:07:44;9.80;77.50
49148;DHT22;41980;45.550;12.070;2023-03-21T06:13:46;11.00;76.30
49148;DHT22;41980;45.550;12.070;2023-03-21T06:19:48;12.30;72.70
49148;DHT22;41980;45.550;12.070;2023-03-21T06:25:57;13.40;73.00
49148;DHT22;41980;45.550;12.070;2023-03-21T06:32:01;14.20;71.60
49148;DHT22;41980;45.550;12.070;2023-03-21T06:38:04;15.10;71.60
49148;DHT22;41980;45.550;12.070;2023-03-21T06:44:08;16.10;70.60
49148;DHT22;41980;45.550;12.070;2023-03-21T06:50:20;17.30;68.70
49148;DHT22;41980;45.550;12.070;2023-03-21T06:56:22;18.40;66.10
49148;DHT22;41980;45.550;12.070;2023-03-21T07:02:24;19.20;63.30
49148;DHT22;41980;45.550;12.070;2023-03-21T07:08:29;19.80;67.10
49148;DHT22;41980;45.550;12.070;2023-03-21T07:14:33;20.60;66.20
49148;DHT22;41980;45.550;12.070;2023-03-21T07:20:35;21.30;66.10
49148;DHT22;41980;45.550;12.070;2023-03-21T07:26:39;21.70;63.90
49148;DHT22;41980;45.550;12.070;2023-03-21T07:32:41;21.90;64.60
49148;DHT22;41980;45.550;12.070;2023-03-21T07:38:44;22.20;63.40
49148;DHT22;41980;45.550;12.070;2023-03-21T07:44:47;23.00;64.50
49148;DHT22;41980;45.550;12.070;2023-03-21T07:50:49;23.50;63.40
49148;DHT22;41980;45.550;12.070;2023-03-21T07:56:51;23.80;61.90
49148;DHT22;41980;45.550;12.070;2023-03-21T08:02:55;23.00;61.40
49148;DHT22;41980;45.550;12.070;2023-03-21T08:08:58;21.20;63.70
49148;DHT22;41980;45.550;12.070;2023-03-21T08:15:00;19.20;60.80
49148;DHT22;41980;45.550;12.070;2023-03-21T08:21:02;17.90;67.80
49148;DHT22;41980;45.550;12.070;2023-03-21T08:27:05;16.50;68.10
49148;DHT22;41980;45.550;12.070;2023-03-21T08:33:08;16.10;68.00
49148;DHT22;41980;45.550;12.070;2023-03-21T08:39:10;15.70;68.00
49148;DHT22;41980;45.550;12.070;2023-03-21T08:45:14;15.50;67.80
49148;DHT22;41980;45.550;12.070;2023-03-21T08:51:17;15.50;68.20
49148;DHT22;41980;45.550;12.070;2023-03-21T08:57:19;17.20;69.70
49148;DHT22;41980;45.550;12.070;2023-03-21T09:03:21;19.60;66.50
49148;DHT22;41980;45.550;12.070;2023-03-21T09:09:23;21.50;64.30
49148;DHT22;41980;45.550;12.070;2023-03-21T09:15:26;22.90;60.70
49148;DHT22;41980;45.550;12.070;2023-03-21T09:21:30;23.80;61.10
49148;DHT22;41980;45.550;12.070;2023-03-21T09:27:32;24.80;60.50
49148;DHT22;41980;45.550;12.070;2023-03-21T09:33:34;25.20;59.90
49148;DHT22;41980;45.550;12.070;2023-03-21T09:39:36;25.20;59.30
49148;DHT22;41980;45.550;12.070;2023-03-21T09:45:46;25.40;59.10
49148;DHT22;41980;45.550;12.070;2023-03-21T09:51:55;25.40;59.50
49148;DHT22;41980;45.550;12.070;2023-03-21T09:58:03;25.50;58.10
49148;DHT22;41980;45.550;12.070;2023-03-21T10:04:09;25.20;56.70
49148;DHT22;41980;45.550;12.070;2023-03-21T10:10:18;25.20;56.90
49148;DHT22;41980;45.550;12.070;2023-03-21T10:16:27;25.50;56.20
49148;DHT22;41980;45.550;12.070;2023-03-21T10:22:30;25.10;55.10
49148;DHT22;41980;45.550;12.070;2023-03-21T10:28:37;25.10;49.80
49148;DHT22;41980;45.550;12.070;2023-03-21T10:34:44;24.80;54.80
49148;DHT22;41980;45.550;12.070;2023-03-21T10:40:47;24.70;55.40
49148;DHT22;41980;45.550;12.070;2023-03-21T10:46:53;24.20;54.50
49148;DHT22;41980;45.550;12.070;2023-03-21T10:52:56;23.40;54.40
49148;DHT22;41980;45.550;12.070;2023-03-21T10:59:01;22.30;55.60
49148;DHT22;41980;45.550;12.070;2023-03-21T11:05:07;21.50;55.10
49148;DHT22;41980;45.550;12.070;2023-03-21T11:17:29;20.80;55.40
49148;DHT22;41980;45.550;12.070;2023-03-21T11:23:34;20.50;54.90
49148;DHT22;41980;45.550;12.070;2023-03-21T11:42:00;19.70;54.10
49148;DHT22;41980;45.550;12.070;2023-03-21T11:48:10;19.70;54.20
49148;DHT22;41980;45.550;12.070;2023-03-21T12:00:24;19.50;53.30
49148;DHT22;41980;45.550;12.070;2023-03-21T12:24:57;19.40;54.00
49148;DHT22;41980;45.550;12.070;2023-03-21T12:37:17;19.40;53.90
49148;DHT22;41980;45.550;12.070;2023-03-21T12:49:38;19.30;53.90
49148;DHT22;41980;45.550;12.070;2023-03-21T12:55:42;19.20;53.40
49148;DHT22;41980;45.550;12.070;2023-03-21T13:01:46;19.10;53.60
49148;DHT22;41980;45.550;12.070;2023-03-21T13:07:53;19.10;53.30
49148;DHT22;41980;45.550;12.070;2023-03-21T13:26:19;19.10;53.70
49148;DHT22;41980;45.550;12.070;2023-03-21T13:38:26;19.10;53.50
49148;DHT22;41980;45.550;12.070;2023-03-21T14:08:58;19.10;53.50
49148;DHT22;41980;45.550;12.070;2023-03-21T14:21:13;19.20;53.20
49148;DHT22;41980;45.550;12.070;2023-03-21T14:27:17;19.10;53.60
49148;DHT22;41980;45.550;12.070;2023-03-21T14:33:25;19.10;53.80
49148;DHT22;41980;45.550;12.070;2023-03-21T14:39:29;19.10;53.40
49148;DHT22;41980;45.550;12.070;2023-03-21T14:45:34;19.10;53.60
49148;DHT22;41980;45.550;12.070;2023-03-21T14:51:38;19.00;53.90
49148;DHT22;41980;45.550;12.070;2023-03-21T14:57:43;19.00;53.90
49148;DHT22;41980;45.550;12.070;2023-03-21T15:03:46;19.00;53.50
49148;DHT22;41980;45.550;12.070;2023-03-21T15:09:54;18.90;54.00
49148;DHT22;41980;45.550;12.070;2023-03-21T15:15:57;18.80;54.20
49148;DHT22;41980;45.550;12.070;2023-03-21T15:28:12;18.60;54.10
49148;DHT22;41980;45.550;12.070;2023-03-21T15:52:35;18.50;54.40
49148;DHT22;41980;45.550;12.070;2023-03-21T15:58:41;18.40;54.30
49148;DHT22;41980;45.550;12.070;2023-03-21T16:10:53;18.20;54.70
49148;DHT22;41980;45.550;12.070;2023-03-21T16:16:55;18.20;54.70
49148;DHT22;41980;45.550;12.070;2023-03-21T16:23:00;18.00;54.80
49148;DHT22;41980;45.550;12.070;2023-03-21T16:29:03;17.90;55.40
49148;DHT22;41980;45.550;12.070;2023-03-21T16:35:07;17.70;55.70
49148;DHT22;41980;45.550;12.070;2023-03-21T16:41:11;17.50;55.90
49148;DHT22;41980;45.550;12.070;2023-03-21T16:47:18;17.40;56.10
49148;DHT22;41980;45.550;12.070;2023-03-21T16:53:21;17.30;56.30
49148;DHT22;41980;45.550;12.070;2023-03-21T16:59:23;17.10;56.60
49148;DHT22;41980;45.550;12.070;2023-03-21T17:05:26;17.00;56.80
49148;DHT22;41980;45.550;12.070;2023-03-21T17:11:31;16.80;57.00
49148;DHT22;41980;45.550;12.070;2023-03-21T17:17:36;16.60;57.20
49148;DHT22;41980;45.550;12.070;2023-03-21T17:23:39;16.50;57.50
49148;DHT22;41980;45.550;12.070;2023-03-21T17:29:41;16.30;57.70
49148;DHT22;41980;45.550;12.070;2023-03-21T17:35:43;16.20;57.90
49148;DHT22;41980;45.550;12.070;2023-03-21T17:41:45;16.00;58.10
49148;DHT22;41980;45.550;12.070;2023-03-21T17:47:47;16.00;58.40
49148;DHT22;41980;45.550;12.070;2023-03-21T17:53:50;15.90;58.50
49148;DHT22;41980;45.550;12.070;2023-03-21T17:59:52;15.80;58.80
49148;DHT22;41980;45.550;12.070;2023-03-21T18:05:54;15.60;59.10
49148;DHT22;41980;45.550;12.070;2023-03-21T18:11:56;15.50;59.30
49148;DHT22;41980;45.550;12.070;2023-03-21T18:17:59;15.40;59.40
49148;DHT22;41980;45.550;12.070;2023-03-21T18:24:01;15.30;59.50
49148;DHT22;41980;45.550;12.070;2023-03-21T18:30:05;15.20;59.70
49148;DHT22;41980;45.550;12.070;2023-03-21T18:36:11;15.10;59.90
49148;DHT22;41980;45.550;12.070;2023-03-21T18:42:14;15.10;60.00
49148;DHT22;41980;45.550;12.070;2023-03-21T18:48:16;15.10;60.10
49148;DHT22;41980;45.550;12.070;2023-03-21T18:54:19;15.00;60.10
49148;DHT22;41980;45.550;12.070;2023-03-21T19:00:21;15.00;60.20
49148;DHT22;41980;45.550;12.070;2023-03-21T19:06:25;14.90;60.40
49148;DHT22;41980;45.550;12.070;2023-03-21T19:12:27;14.80;60.70
49148;DHT22;41980;45.550;12.070;2023-03-21T19:18:30;14.80;60.80
49148;DHT22;41980;45.550;12.070;2023-03-21T19:24:33;14.80;61.00
49148;DHT22;41980;45.550;12.070;2023-03-21T19:30:34;14.70;61.10
49148;DHT22;41980;45.550;12.070;2023-03-21T19:36:37;14.60;61.20
49148;DHT22;41980;45.550;12.070;2023-03-21T19:42:39;14.60;61.30
49148;DHT22;41980;45.550;12.070;2023-03-21T19:48:42;14.50;61.60
49148;DHT22;41980;45.550;12.070;2023-03-21T19:54:44;14.50;61.40
49148;DHT22;41980;45.550;12.070;2023-03-21T20:00:47;14.50;61.70
49148;DHT22;41980;45.550;12.070;2023-03-21T20:06:49;14.50;62.10
49148;DHT22;41980;45.550;12.070;2023-03-21T20:12:54;14.40;61.80
49148;DHT22;41980;45.550;12.070;2023-03-21T20:18:56;14.40;61.90
49148;DHT22;41980;45.550;12.070;2023-03-21T20:24:58;14.40;62.10
49148;DHT22;41980;45.550;12.070;2023-03-21T20:31:05;14.30;62.10
49148;DHT22;41980;45.550;12.070;2023-03-21T20:37:08;14.20;62.20
49148;DHT22;41980;45.550;12.070;2023-03-21T20:43:10;14.20;62.30
49148;DHT22;41980;45.550;12.070;2023-03-21T20:49:12;14.20;62.30
49148;DHT22;41980;45.550;12.070;2023-03-21T20:55:16;14.20;62.30
49148;DHT22;41980;45.550;12.070;2023-03-21T21:01:18;14.20;62.50
49148;DHT22;41980;45.550;12.070;2023-03-21T21:07:21;14.10;62.40
49148;DHT22;41980;45.550;12.070;2023-03-21T21:13:23;14.00;62.60
49148;DHT22;41980;45.550;12.070;2023-03-21T21:19:25;14.00;62.90
49148;DHT22;41980;45.550;12.070;2023-03-21T21:25:30;13.90;63.00
49148;DHT22;41980;45.550;12.070;2023-03-21T21:31:33;13.90;63.20
49148;DHT22;41980;45.550;12.070;2023-03-21T21:37:36;13.80;63.30
49148;DHT22;41980;45.550;12.070;2023-03-21T21:43:38;13.80;63.30
49148;DHT22;41980;45.550;12.070;2023-03-21T21:49:41;13.80;63.30
49148;DHT22;41980;45.550;12.070;2023-03-21T21:55:43;13.80;63.70
49148;DHT22;41980;45.550;12.070;2023-03-21T22:01:48;13.90;63.80
49148;DHT22;41980;45.550;12.070;2023-03-21T22:07:54;13.80;63.40
49148;DHT22;41980;45.550;12.070;2023-03-21T22:13:56;13.90;63.40
49148;DHT22;41980;45.550;12.070;2023-03-21T22:19:58;13.80;63.60
49148;DHT22;41980;45.550;12.070;2023-03-21T22:26:00;13.70;63.70
49148;DHT22;41980;45.550;12.070;2023-03-21T22:32:02;13.60;63.70
49148;DHT22;41980;45.550;12.070;2023-03-21T22:38:04;13.50;63.90
49148;DHT22;41980;45.550;12.070;2023-03-21T22:44:06;13.40;64.10
49148;DHT22;41980;45.550;12.070;2023-03-21T22:50:08;13.20;64.40
49148;DHT22;41980;45.550;12.070;2023-03-21T22:56:10;13.10;64.50
49148;DHT22;41980;45.550;12.070;2023-03-21T23:02:12;13.00;64.70
49148;DHT22;41980;45.550;12.070;2023-03-21T23:08:14;13.00;64.90
49148;DHT22;41980;45.550;12.070;2023-03-21T23:14:17;12.90;64.90
49148;DHT22;41980;45.550;12.070;2023-03-21T23:20:21;12.80;65.30
49148;DHT22;41980;45.550;12.070;2023-03-21T23:26:23;12.80;65.60
49148;DHT22;41980;45.550;12.070;2023-03-21T23:32:25;12.70;65.50
49148;DHT22;41980;45.550;12.070;2023-03-21T23:38:27;12.60;65.90
49148;DHT22;41980;45.550;12.070;2023-03-21T23:44:29;12.50;65.60
49148;DHT22;41980;45.550;12.070;2023-03-21T23:50:31;12.50;65.60
49148;DHT22;41980;45.550;12.070;2023-03-21T23:56:35;12.60;65.60
